Weather History for Taos, NM

Change the Weather History Date:

Sunday, November 4, 2012

  Actual Average Record
Temperature  
Mean Temperature 42 °F -  
Max Temperature 64 °F 51 °F 66 °F (2007)
Min Temperature 21 °F 23 °F 17 °F (1999)
Degree Days  
Heating Degree Days 22    
Moisture  
Dew Point 10 °F    
Average Humidity 33    
Maximum Humidity 58    
Minimum Humidity 12    
Precipitation  
Precipitation 0.00 in - - ()
Sea Level Pressure  
Sea Level Pressure 30.33 in    
Wind  
Wind Speed 6 mph (North)    
Max Wind Speed 10 mph    
Max Gust Speed -    
Visibility 10 miles    
Events      
Averages and records for this station are not official NWS values.
T = Trace of Precipitation, MM = Missing Value Source: NWS Daily Summary

Daily Weather History Graph

Daily Weather History Graph

Search for Another Location

Airport:

Trip Planner

Search our weather history database for the weather conditions in past years. The results will help you decide how hot, cold, wet, or windy it might be!

Date:

Astronomy

Nov. 04, 2012 Rise Set
Actual Time 6:29 AM MST 5:02 PM MST
Civil Twilight 6:02 AM MST 5:29 PM MST
Nautical Twilight 5:31 AM MST 6:00 PM MST
Astronomical Twilight 5:01 AM MST 6:30 PM MST
Moon 9:44 PM MST (11/4) 11:13 AM MST (11/4)
Length of Visible Light 11h 26m
Length of Day
10h 33m
Waning Gibbous, 71% of the Moon is Illuminated
Nov 4
Waning Gibbous
Nov 6
Last Quarter
Nov 13
New
Nov 20
First Quarter
Nov 28
Full

Hourly Weather History & Observations

Time (MST) Temp. Windchill Dew Point Humidity Pressure Visibility Wind Dir Wind Speed Gust Speed Precip Events Conditions
12:15 AM 30.2 °F 23.4 °F 10.4 °F 44% 30.31 in 10.0 mi North 6.9 mph - N/A   Clear
12:35 AM 28.4 °F 23.3 °F 8.6 °F 43% 30.31 in 10.0 mi North 4.6 mph - N/A   Clear
12:55 AM 30.2 °F 23.4 °F 10.4 °F 44% 30.31 in 10.0 mi North 6.9 mph - N/A   Clear
1:15 AM 28.4 °F 20.4 °F 10.4 °F 47% 30.31 in 10.0 mi North 8.1 mph - N/A   Clear
1:35 AM 26.6 °F 18.2 °F 8.6 °F 47% 30.31 in 10.0 mi North 8.1 mph - N/A   Clear
1:55 AM 26.6 °F 18.2 °F 8.6 °F 47% 30.31 in 10.0 mi North 8.1 mph - N/A   Clear
1:15 AM 26.6 °F 17.5 °F 8.6 °F 47% 30.32 in 10.0 mi North 9.2 mph - N/A   Clear
1:35 AM 26.6 °F 17.5 °F 8.6 °F 47% 30.32 in 10.0 mi North 9.2 mph - N/A   Clear
1:55 AM 26.6 °F 19.1 °F 8.6 °F 47% 30.33 in 10.0 mi North 6.9 mph - N/A   Clear
2:15 AM 24.8 °F 16.9 °F 8.6 °F 50% 30.33 in 10.0 mi North 6.9 mph - N/A   Clear
2:35 AM 28.4 °F 23.3 °F 10.4 °F 47% 30.33 in 10.0 mi North 4.6 mph - N/A   Clear
2:55 AM 26.6 °F - 8.6 °F 47% 30.32 in 10.0 mi Calm Calm - N/A   Clear
3:15 AM 28.4 °F - 10.4 °F 47% 30.32 in 10.0 mi Calm Calm - N/A   Clear
3:35 AM 24.8 °F 19.1 °F 10.4 °F 54% 30.32 in 10.0 mi North 4.6 mph - N/A   Clear
3:55 AM 23.0 °F 13.9 °F 6.8 °F 50% 30.33 in 10.0 mi NNE 8.1 mph - N/A   Clear
4:15 AM 24.8 °F 16.9 °F 6.8 °F 46% 30.33 in 10.0 mi North 6.9 mph - N/A   Clear
4:35 AM 23.0 °F 17.0 °F 6.8 °F 50% 30.33 in 10.0 mi North 4.6 mph - N/A   Clear
4:55 AM 21.2 °F 13.6 °F 6.8 °F 54% 30.33 in 10.0 mi NNW 5.8 mph - N/A   Clear
5:15 AM 21.2 °F 14.9 °F 6.8 °F 54% 30.33 in 10.0 mi North 4.6 mph - N/A   Clear
5:35 AM 21.2 °F 12.6 °F 6.8 °F 54% 30.33 in 10.0 mi North 6.9 mph - N/A   Clear
5:55 AM 21.2 °F 11.7 °F 6.8 °F 54% 30.34 in 10.0 mi North 8.1 mph - N/A   Clear
6:15 AM 21.2 °F 10.9 °F 6.8 °F 54% 30.34 in 10.0 mi NNE 9.2 mph - N/A   Clear
6:35 AM 21.2 °F 10.9 °F 6.8 °F 54% 30.35 in 10.0 mi North 9.2 mph - N/A   Clear
6:55 AM 21.2 °F 14.9 °F 8.6 °F 58% 30.36 in 10.0 mi North 4.6 mph - N/A   Clear
7:15 AM 24.8 °F 19.1 °F 8.6 °F 50% 30.37 in 10.0 mi North 4.6 mph - N/A   Clear
7:35 AM 28.4 °F - 10.4 °F 47% 30.37 in 10.0 mi Calm Calm - N/A   Clear
7:55 AM 32.0 °F 28.7 °F 10.4 °F 41% 30.38 in 10.0 mi North 3.5 mph - N/A   Clear
8:15 AM 35.6 °F - 12.2 °F 38% 30.38 in 10.0 mi Calm Calm - N/A   Clear
8:35 AM 39.2 °F - 12.2 °F 33% 30.38 in 10.0 mi Calm Calm - N/A   Clear
8:55 AM 42.8 °F - 15.8 °F 34% 30.38 in 10.0 mi Calm Calm - N/A   Clear
9:15 AM 44.6 °F - 15.8 °F 31% 30.38 in 10.0 mi Calm Calm - N/A   Clear
9:35 AM 46.4 °F - 15.8 °F 29% 30.38 in 10.0 mi Calm Calm - N/A   Clear
9:55 AM 48.2 °F - 17.6 °F 30% 30.38 in 10.0 mi WNW 3.5 mph - N/A   Clear
10:15 AM 51.8 °F - 15.8 °F 24% 30.37 in 10.0 mi NW 3.5 mph - N/A   Clear
10:35 AM 53.6 °F - 15.8 °F 22% 30.37 in 10.0 mi Calm Calm - N/A   Clear
10:55 AM 55.4 °F - 15.8 °F 21% 30.37 in 10.0 mi NNE 5.8 mph - N/A   Clear
11:15 AM 55.4 °F - 15.8 °F 21% 30.35 in 10.0 mi Calm Calm - N/A   Clear
11:35 AM 57.2 °F - 15.8 °F 20% 30.34 in 10.0 mi Calm Calm - N/A   Clear
11:55 AM 57.2 °F - 15.8 °F 20% 30.33 in 10.0 mi WNW 4.6 mph - N/A   Clear
12:15 PM 57.2 °F - 15.8 °F 20% 30.32 in 10.0 mi Calm Calm - N/A   Clear
12:35 PM 60.8 °F - 15.8 °F 17% 30.31 in 10.0 mi WNW 5.8 mph - N/A   Clear
12:55 PM 60.8 °F - 15.8 °F 17% 30.30 in 10.0 mi NE 4.6 mph - N/A   Clear
1:15 PM 60.8 °F - 15.8 °F 17% 30.30 in 10.0 mi WNW 6.9 mph - N/A   Clear
1:35 PM 60.8 °F - 14.0 °F 16% 30.29 in 10.0 mi West 6.9 mph - N/A   Clear
1:55 PM 64.4 °F - 14.0 °F 14% 30.28 in 10.0 mi NNW 8.1 mph - N/A   Clear
2:15 PM 64.4 °F - 10.4 °F 12% 30.28 in 10.0 mi NW 8.1 mph - N/A   Clear
2:35 PM 62.6 °F - 10.4 °F 13% 30.28 in 10.0 mi West 6.9 mph - N/A   Clear
2:55 PM 62.6 °F - 10.4 °F 13% 30.28 in 10.0 mi West 5.8 mph - N/A   Clear
3:15 PM 62.6 °F - 10.4 °F 13% 30.29 in 10.0 mi NW 3.5 mph - N/A   Clear
3:35 PM 60.8 °F - 10.4 °F 14% 30.29 in 10.0 mi NE 8.1 mph - N/A   Clear
3:55 PM 60.8 °F - 10.4 °F 14% 30.29 in 10.0 mi NNE 9.2 mph - N/A   Clear
4:15 PM 60.8 °F - 10.4 °F 14% 30.29 in 10.0 mi NNE 9.2 mph - N/A   Clear
4:35 PM 57.2 °F - 10.4 °F 16% 30.29 in 10.0 mi North 8.1 mph - N/A   Clear
4:55 PM 55.4 °F - 10.4 °F 17% 30.30 in 10.0 mi North 8.1 mph - N/A   Clear
5:15 PM 50.0 °F - 6.8 °F 17% 30.30 in 10.0 mi North 9.2 mph - N/A   Clear
5:35 PM 46.4 °F 41.5 °F 6.8 °F 20% 30.30 in 10.0 mi North 10.4 mph - N/A   Clear
5:55 PM 44.6 °F 40.2 °F 6.8 °F 21% 30.31 in 10.0 mi North 8.1 mph - N/A   Clear
6:15 PM 44.6 °F 40.2 °F 6.8 °F 21% 30.32 in 10.0 mi NNW 8.1 mph - N/A   Clear
6:35 PM 39.2 °F 34.2 °F 3.2 °F 22% 30.33 in 10.0 mi North 6.9 mph - N/A   Clear
6:55 PM 39.2 °F 33.0 °F 6.8 °F 26% 30.34 in 10.0 mi North 9.2 mph - N/A   Clear
7:15 PM 41.0 °F 38.0 °F 8.6 °F 26% 30.34 in 10.0 mi ENE 4.6 mph - N/A   Clear
7:35 PM 42.8 °F 38.0 °F 8.6 °F 25% 30.34 in 10.0 mi NE 8.1 mph - N/A   Clear
7:55 PM 41.0 °F 35.2 °F 8.6 °F 26% 30.35 in 10.0 mi NE 9.2 mph - N/A   Clear
8:15 PM 39.2 °F 35.0 °F 8.6 °F 28% 30.36 in 10.0 mi NE 5.8 mph - N/A   Clear
8:35 PM 37.4 °F 32.8 °F 6.8 °F 28% 30.36 in 10.0 mi SE 5.8 mph - N/A   Clear
8:55 PM 37.4 °F - 8.6 °F 30% 30.36 in 10.0 mi Calm Calm - N/A   Clear
9:15 PM 37.4 °F - 6.8 °F 28% 30.37 in 10.0 mi Calm Calm - N/A   Clear
9:35 PM 33.8 °F 29.6 °F 3.2 °F 28% 30.37 in 10.0 mi North 4.6 mph - N/A   Clear
9:55 PM 33.8 °F 29.6 °F 6.8 °F 32% 30.37 in 10.0 mi ENE 4.6 mph - N/A   Clear
10:15 PM 35.6 °F 31.7 °F 6.8 °F 30% 30.37 in 10.0 mi East 4.6 mph - N/A   Clear
10:35 PM 33.8 °F - 8.6 °F 35% 30.37 in 10.0 mi Calm Calm - N/A   Clear
10:55 PM 37.4 °F - 10.4 °F 33% 30.37 in 10.0 mi Calm Calm - N/A   Clear